^^
Your Local Weather - Clay, NY Station Historical Data
Daily Summary for August 7, 2017 Units:  English    Metric   Both
« Previous Day
Next Day »
Daily Weekly Monthly Yearly Custom
  High: Low: Average:
Temperature: 77.7 °F 55.2 °F 64.4 °F
Dew Point: 64.6 °F 52.7 °F 58.6 °F
Humidity: 94% 50% 82%
Wind Speed: 5.0mph 0.0mph 0.6mph
Wind Gust: 7.0mph - -
Wind- - SSW
Pressure: 30.01 in 29.87 in -
Precipitation: 0.05 in    
Historical Graphs
 
 
Tabular Data for August 7, 2017
Time Temperature Dew Point Pressure Wind Wind Speed Wind Gust Humidity Rainfall Rate (Hourly) solar
00:02 58.7 °F 55.8 °F 30.01 in Calm     90% 0.00 in 0 W/m2
00:08 58.8 °F 55.9 °F 30.01 in Calm     90% 0.00 in 0 W/m2
00:14 59.0 °F 56.1 °F 30.01 in Calm     90% 0.00 in 0 W/m2
00:20 59.1 °F 56.2 °F 30.01 in Calm     90% 0.00 in 0 W/m2
00:26 58.9 °F 56.0 °F 30.01 in Calm     90% 0.00 in 0 W/m2
00:32 58.8 °F 55.9 °F 30.01 in Calm     90% 0.00 in 0 W/m2
00:38 58.9 °F 56.0 °F 30.01 in Calm     90% 0.00 in 0 W/m2
00:44 59.0 °F 56.1 °F 30.01 in Calm     90% 0.00 in 0 W/m2
00:50 59.0 °F 56.1 °F 30.01 in Calm     90% 0.00 in 0 W/m2
00:56 58.8 °F 55.9 °F 30.01 in Calm     90% 0.00 in 0 W/m2
01:02 58.8 °F 55.9 °F 30.01 in Calm     90% 0.00 in 0 W/m2
01:08 58.6 °F 55.7 °F 30.01 in Calm     90% 0.00 in 0 W/m2
01:14 58.4 °F 55.5 °F 30.01 in Calm     90% 0.00 in 0 W/m2
01:20 58.3 °F 55.1 °F 30.01 in Calm     89% 0.00 in 0 W/m2
01:26 58.4 °F 55.2 °F 30.01 in Calm     89% 0.00 in 0 W/m2
01:32 58.3 °F 55.1 °F 30.01 in Calm     89% 0.00 in 0 W/m2
01:38 58.2 °F 55.0 °F 30.01 in Calm     89% 0.00 in 0 W/m2
01:44 58.0 °F 54.8 °F 30.01 in Calm     89% 0.00 in 0 W/m2
01:50 58.0 °F 54.8 °F 30.01 in Calm     89% 0.00 in 0 W/m2
01:56 58.2 °F 55.3 °F 30.00 in Calm     90% 0.00 in 0 W/m2
02:02 58.4 °F 55.5 °F 30.00 in Calm     90% 0.00 in 0 W/m2
02:08 58.2 °F 55.3 °F 30.00 in Calm     90% 0.00 in 0 W/m2
02:14 58.0 °F 54.8 °F 30.00 in Calm     89% 0.00 in 0 W/m2
02:20 57.7 °F 54.5 °F 30.00 in Calm     89% 0.00 in 0 W/m2
02:26 57.6 °F 54.4 °F 30.00 in Calm     89% 0.00 in 0 W/m2
02:32 57.4 °F 54.2 °F 30.00 in Calm     89% 0.00 in 0 W/m2
02:38 57.2 °F 54.0 °F 29.99 in Calm     89% 0.00 in 0 W/m2
02:44 57.2 °F 54.0 °F 29.99 in Calm     89% 0.00 in 0 W/m2
02:50 57.1 °F 54.2 °F 29.99 in Calm     90% 0.00 in 0 W/m2
02:56 56.9 °F 54.0 °F 29.99 in Calm     90% 0.00 in 0 W/m2
03:08 56.8 °F 53.9 °F 29.99 in Calm     90% 0.00 in 0 W/m2
03:14 56.6 °F 53.7 °F 29.99 in Calm     90% 0.00 in 0 W/m2
03:20 56.4 °F 53.5 °F 29.99 in Calm     90% 0.00 in 0 W/m2
03:26 56.1 °F 53.2 °F 29.99 in Calm     90% 0.00 in 0 W/m2
03:32 56.0 °F 53.1 °F 29.99 in Calm     90% 0.00 in 0 W/m2
03:38 55.9 °F 53.0 °F 29.99 in Calm     90% 0.00 in 0 W/m2
03:44 56.0 °F 53.4 °F 29.99 in Calm     91% 0.00 in 0 W/m2
03:50 56.2 °F 53.6 °F 29.99 in Calm     91% 0.00 in 0 W/m2
03:56 56.1 °F 53.5 °F 29.99 in Calm     91% 0.00 in 0 W/m2
04:02 56.1 °F 53.5 °F 29.99 in Calm     91% 0.00 in 0 W/m2
04:08 56.0 °F 53.4 °F 29.99 in Calm     91% 0.00 in 0 W/m2
04:14 55.8 °F 53.2 °F 29.99 in Calm     91% 0.00 in 0 W/m2
04:20 55.6 °F 53.0 °F 29.98 in Calm     91% 0.00 in 0 W/m2
04:26 55.6 °F 53.0 °F 29.98 in Calm     91% 0.00 in 0 W/m2
04:32 55.6 °F 53.0 °F 29.98 in Calm     91% 0.00 in 0 W/m2
04:38 55.5 °F 52.9 °F 29.99 in Calm     91% 0.00 in 0 W/m2
04:44 55.3 °F 52.7 °F 29.99 in Calm     91% 0.00 in 0 W/m2
04:50 55.4 °F 53.1 °F 29.98 in Calm     92% 0.00 in 0 W/m2
04:56 55.6 °F 53.3 °F 29.98 in Calm     92% 0.00 in 0 W/m2
05:02 55.5 °F 53.2 °F 29.98 in Calm     92% 0.00 in 0 W/m2
05:08 55.4 °F 53.1 °F 29.98 in Calm     92% 0.00 in 0 W/m2
05:14 55.3 °F 53.0 °F 29.98 in Calm     92% 0.00 in 0 W/m2
05:20 55.2 °F 52.9 °F 29.98 in Calm     92% 0.00 in 0 W/m2
05:26 55.3 °F 53.0 °F 29.98 in Calm     92% 0.00 in 0 W/m2
05:32 55.2 °F 52.9 °F 29.98 in Calm     92% 0.00 in 0 W/m2
05:38 55.2 °F 52.9 °F 29.98 in Calm     92% 0.00 in 0 W/m2
05:44 55.3 °F 53.0 °F 29.98 in Calm     92% 0.00 in 0 W/m2
05:50 55.3 °F 53.0 °F 29.98 in Calm     92% 0.00 in 0 W/m2
05:56 55.4 °F 53.1 °F 29.98 in Calm     92% 0.00 in 0 W/m2
06:02 55.3 °F 53.3 °F 29.99 in Calm     93% 0.00 in 0 W/m2
06:08 55.3 °F 53.3 °F 29.99 in Calm     93% 0.00 in 5 W/m2
06:14 55.2 °F 53.2 °F 29.99 in Calm     93% 0.00 in 11 W/m2
06:20 55.3 °F 53.3 °F 29.99 in Calm     93% 0.00 in 14 W/m2
06:26 55.4 °F 53.4 °F 29.99 in Calm     93% 0.00 in 19 W/m2
06:32 55.6 °F 53.6 °F 29.99 in Calm   1.0 mph 93% 0.00 in 25 W/m2
06:38 55.9 °F 53.9 °F 29.99 in Calm   1.0 mph 93% 0.00 in 32 W/m2
06:44 56.0 °F 54.0 °F 29.99 in Calm     93% 0.00 in 42 W/m2
06:50 56.3 °F 54.3 °F 29.99 in Calm     93% 0.00 in 62 W/m2
06:56 56.6 °F 54.6 °F 29.99 in Calm     93% 0.00 in 72 W/m2
07:02 57.0 °F 55.0 °F 29.99 in Calm     93% 0.00 in 93 W/m2
07:08 57.6 °F 55.6 °F 29.99 in Calm     93% 0.00 in 98 W/m2
07:14 57.9 °F 55.9 °F 29.99 in Calm     93% 0.00 in 123 W/m2
07:20 58.6 °F 56.9 °F 29.99 in Calm     94% 0.00 in 139 W/m2
07:26 59.3 °F 57.3 °F 29.99 in Calm     93% 0.00 in 153 W/m2
07:32 60.0 °F 58.0 °F 29.99 in Calm     93% 0.00 in 171 W/m2
07:38 60.4 °F 58.1 °F 29.99 in Calm   2.0 mph 92% 0.00 in 188 W/m2
07:44 60.8 °F 58.2 °F 29.99 in Calm     91% 0.00 in 199 W/m2
07:50 61.6 °F 58.3 °F 29.99 in Calm     89% 0.00 in 214 W/m2
07:56 62.5 °F 58.6 °F 29.99 in Calm     87% 0.00 in 230 W/m2
08:02 63.4 °F 58.5 °F 29.99 in Calm   2.0 mph 84% 0.00 in 229 W/m2
08:08 63.8 °F 58.2 °F 29.99 in Calm   2.0 mph 82% 0.00 in 260 W/m2
08:14 64.2 °F 58.2 °F 29.99 in Calm     81% 0.00 in 297 W/m2
08:20 65.1 °F 58.8 °F 29.99 in Calm   3.0 mph 80% 0.00 in 272 W/m2
08:26 65.2 °F 58.5 °F 29.99 in SSE 1.0 mph 3.0 mph 79% 0.00 in 181 W/m2
08:32 65.1 °F 58.8 °F 29.99 in SSE 1.0 mph 1.0 mph 80% 0.00 in 206 W/m2
08:38 65.2 °F 58.9 °F 29.99 in SSE 1.0 mph 1.0 mph 80% 0.00 in 144 W/m2
08:44 65.4 °F 59.1 °F 29.99 in SSE 1.0 mph 2.0 mph 80% 0.00 in 163 W/m2
08:50 65.8 °F 59.8 °F 29.99 in Calm     81% 0.00 in 204 W/m2
08:56 66.4 °F 60.0 °F 29.99 in Calm     80% 0.00 in 476 W/m2
09:02 67.4 °F 59.9 °F 29.99 in Calm   2.0 mph 77% 0.00 in 466 W/m2
09:08 67.8 °F 60.0 °F 29.99 in Calm   2.0 mph 76% 0.00 in 478 W/m2
09:14 68.3 °F 60.1 °F 29.99 in Calm   1.0 mph 75% 0.00 in 541 W/m2
09:20 68.7 °F 60.1 °F 29.98 in Calm     74% 0.00 in 225 W/m2
09:26 68.7 °F 59.7 °F 29.98 in Calm   2.0 mph 73% 0.00 in 257 W/m2
09:32 68.7 °F 60.5 °F 29.98 in SSE 1.0 mph 3.0 mph 75% 0.00 in 276 W/m2
09:38 68.8 °F 59.4 °F 29.98 in SSE 2.0 mph 3.0 mph 72% 0.00 in 336 W/m2
09:44 69.0 °F 60.0 °F 29.98 in SSE 1.0 mph 2.0 mph 73% 0.00 in 197 W/m2
09:50 68.7 °F 59.7 °F 29.97 in SSE 1.0 mph 1.0 mph 73% 0.00 in 192 W/m2
09:56 68.7 °F 60.1 °F 29.98 in SSE 1.0 mph 1.0 mph 74% 0.00 in 223 W/m2
10:02 69.6 °F 60.6 °F 29.98 in Calm     73% 0.00 in 281 W/m2
10:08 70.0 °F 60.2 °F 29.97 in Calm   1.0 mph 71% 0.00 in 304 W/m2
10:14 70.4 °F 60.5 °F 29.97 in Calm     71% 0.00 in 413 W/m2
10:20 71.5 °F 61.6 °F 29.97 in Calm   4.0 mph 71% 0.00 in 663 W/m2
10:26 72.0 °F 60.9 °F 29.97 in SE 1.0 mph 4.0 mph 68% 0.00 in 673 W/m2
10:32 72.4 °F 60.8 °F 29.97 in SSW 1.0 mph 1.0 mph 67% 0.00 in 689 W/m2
10:38 72.8 °F 60.8 °F 29.97 in Calm   1.0 mph 66% 0.00 in 707 W/m2
10:44 73.0 °F 59.7 °F 29.97 in SSE 1.0 mph 3.0 mph 63% 0.00 in 705 W/m2
10:50 73.3 °F 60.8 °F 29.96 in SE 1.0 mph 1.0 mph 65% 0.00 in 733 W/m2
10:56 73.5 °F 59.7 °F 29.96 in SE 1.0 mph 2.0 mph 62% 0.00 in 742 W/m2
11:02 74.2 °F 61.7 °F 29.96 in SE 1.0 mph 1.0 mph 65% 0.00 in 770 W/m2
11:08 75.0 °F 59.7 °F 29.96 in SW 1.0 mph 6.0 mph 59% 0.00 in 773 W/m2
11:14 74.3 °F 57.6 °F 29.96 in WSW 3.0 mph 4.0 mph 56% 0.00 in 786 W/m2
11:20 75.2 °F 59.4 °F 29.96 in SW 2.0 mph 4.0 mph 58% 0.00 in 798 W/m2
11:26 75.3 °F 59.5 °F 29.96 in SW 1.0 mph 1.0 mph 58% 0.00 in 810 W/m2
11:32 75.1 °F 59.3 °F 29.96 in SSE 2.0 mph 2.0 mph 58% 0.00 in 837 W/m2
11:38 76.0 °F 60.6 °F 29.96 in SSE 1.0 mph 5.0 mph 59% 0.00 in 856 W/m2
11:44 75.7 °F 58.9 °F 29.96 in SSE 1.0 mph 5.0 mph 56% 0.00 in 213 W/m2
11:50 75.1 °F 58.8 °F 29.96 in SSW 2.0 mph 6.0 mph 57% 0.00 in 294 W/m2
11:56 75.5 °F 60.6 °F 29.96 in SSW 2.0 mph 3.0 mph 60% 0.00 in 875 W/m2
12:02 76.0 °F 59.2 °F 29.96 in South 3.0 mph 6.0 mph 56% 0.00 in 895 W/m2
12:08 76.3 °F 59.4 °F 29.95 in SE 4.0 mph 6.0 mph 56% 0.00 in 891 W/m2
12:20 76.3 °F 56.8 °F 29.95 in SSE 4.0 mph 5.0 mph 51% 0.00 in 937 W/m2
12:26 76.9 °F 57.4 °F 29.95 in SSE 3.0 mph 5.0 mph 51% 0.00 in 970 W/m2
12:32 77.3 °F 57.8 °F 29.95 in SSW 3.0 mph 3.0 mph 51% 0.00 in 983 W/m2
12:38 77.7 °F 62.2 °F 29.94 in South 2.0 mph 4.0 mph 59% 0.00 in 735 W/m2
12:44 77.2 °F 58.2 °F 29.95 in South 2.0 mph 4.0 mph 52% 0.00 in 519 W/m2
12:50 76.4 °F 56.4 °F 29.94 in SW 2.0 mph 2.0 mph 50% 0.00 in 545 W/m2
12:56 76.1 °F 57.7 °F 29.94 in SSE 2.0 mph 5.0 mph 53% 0.00 in 397 W/m2
13:02 75.6 °F 58.3 °F 29.94 in SSE 3.0 mph 3.0 mph 55% 0.00 in 339 W/m2
13:08 75.5 °F 60.6 °F 29.94 in South 2.0 mph 3.0 mph 60% 0.00 in 292 W/m2
13:14 75.4 °F 60.1 °F 29.93 in SSW 2.0 mph 3.0 mph 59% 0.00 in 301 W/m2
13:20 74.9 °F 60.5 °F 29.93 in South 3.0 mph 3.0 mph 61% 0.00 in 155 W/m2
13:26 73.8 °F 60.0 °F 29.93 in SE 4.0 mph 6.0 mph 62% 0.00 in 88 W/m2
13:32 72.8 °F 59.5 °F 29.93 in SSE 5.0 mph 7.0 mph 63% 0.00 in 42 W/m2
13:44 71.3 °F 60.2 °F 29.93 in SSE 4.0 mph 7.0 mph 68% 0.00 in 42 W/m2
13:50 70.5 °F 60.6 °F 29.93 in South 3.0 mph 3.0 mph 71% 0.00 in 54 W/m2
13:56 69.7 °F 61.8 °F 29.93 in South 1.0 mph 3.0 mph 76% 0.00 in 67 W/m2
14:02 68.5 °F 62.4 °F 29.92 in Calm     81% 0.00 in 90 W/m2
14:08 68.3 °F 62.2 °F 29.92 in Calm     81% 0.00 in 118 W/m2
14:14 68.7 °F 63.3 °F 29.92 in Calm     83% 0.00 in 148 W/m2
14:20 69.0 °F 64.3 °F 29.92 in Calm     85% 0.00 in 139 W/m2
14:26 68.9 °F 64.2 °F 29.91 in Calm   1.0 mph 85% 0.00 in 132 W/m2
14:32 68.8 °F 64.4 °F 29.91 in Calm     86% 0.00 in 142 W/m2
14:38 69.0 °F 64.3 °F 29.91 in Calm   1.0 mph 85% 0.00 in 190 W/m2
14:44 69.6 °F 64.2 °F 29.91 in Calm   1.0 mph 83% 0.00 in 216 W/m2
14:50 70.3 °F 63.8 °F 29.91 in Calm   1.0 mph 80% 0.00 in 171 W/m2
14:56 70.8 °F 63.6 °F 29.90 in ESE 1.0 mph 2.0 mph 78% 0.00 in 107 W/m2
15:02 71.0 °F 63.8 °F 29.90 in ENE 1.0 mph 1.0 mph 78% 0.00 in 102 W/m2
15:08 70.9 °F 63.7 °F 29.90 in Calm   1.0 mph 78% 0.00 in 100 W/m2
15:14 70.9 °F 64.1 °F 29.90 in Calm   2.0 mph 79% 0.00 in 93 W/m2
15:26 70.6 °F 64.1 °F 29.89 in NNE 1.0 mph 2.0 mph 80% 0.00 in 93 W/m2
15:32 70.3 °F 63.5 °F 29.89 in North 1.0 mph 3.0 mph 79% 0.00 in 69 W/m2
15:38 70.0 °F 63.5 °F 29.88 in NNE 1.0 mph 3.0 mph 80% 0.00 in 72 W/m2
15:44 69.7 °F 62.9 °F 29.88 in NNE 1.0 mph 1.0 mph 79% 0.00 in 70 W/m2
15:50 69.4 °F 63.0 °F 29.88 in Calm     80% 0.00 in 58 W/m2
15:56 69.4 °F 63.0 °F 29.88 in NNE 1.0 mph 4.0 mph 80% 0.00 in 56 W/m2
16:02 69.3 °F 62.9 °F 29.88 in NNE 1.0 mph 1.0 mph 80% 0.00 in 47 W/m2
16:08 69.4 °F 63.3 °F 29.88 in Calm   1.0 mph 81% 0.00 in 69 W/m2
16:14 69.4 °F 63.3 °F 29.87 in Calm     81% 0.00 in 79 W/m2
16:20 69.5 °F 63.8 °F 29.87 in Calm     82% 0.00 in 79 W/m2
16:26 69.6 °F 64.2 °F 29.87 in Calm     83% 0.00 in 83 W/m2
16:32 69.7 °F 64.6 °F 29.87 in Calm     84% 0.00 in 98 W/m2
16:38 69.8 °F 64.1 °F 29.87 in Calm     82% 0.00 in 165 W/m2
16:46 70.3 °F 63.8 °F 29.88 in Calm     80% 0.00 in 139 W/m2
16:52 70.7 °F 63.9 °F 29.88 in Calm     79% 0.00 in 105 W/m2
16:58 71.1 °F 64.3 °F 29.88 in Calm     79% 0.00 in 98 W/m2
17:04 71.2 °F 64.4 °F 29.87 in NNE 1.0 mph 2.0 mph 79% 0.00 in 114 W/m2
17:10 71.2 °F 63.6 °F 29.87 in East 1.0 mph 1.0 mph 77% 0.00 in 97 W/m2
17:16 71.4 °F 62.7 °F 29.88 in Calm   1.0 mph 74% 0.00 in 121 W/m2
17:22 71.8 °F 59.0 °F 29.88 in SW 1.0 mph 2.0 mph 64% 0.00 in 105 W/m2
17:28 72.4 °F 59.5 °F 29.87 in SW 1.0 mph 2.0 mph 64% 0.00 in 104 W/m2
17:34 72.9 °F 64.1 °F 29.87 in South 1.0 mph 2.0 mph 74% 0.00 in 97 W/m2
17:40 71.8 °F 64.2 °F 29.88 in NW 1.0 mph 1.0 mph 77% 0.00 in 104 W/m2
17:46 70.1 °F 61.8 °F 29.88 in North 2.0 mph 6.0 mph 75% 0.00 in 81 W/m2
17:52 68.3 °F 61.2 °F 29.88 in NNW 3.0 mph 5.0 mph 78% 0.00 in 91 W/m2
17:58 67.5 °F 61.5 °F 29.88 in NNE 3.0 mph 6.0 mph 81% 0.00 in 97 W/m2
18:04 67.1 °F 61.1 °F 29.88 in WNW 3.0 mph 3.0 mph 81% 0.00 in 58 W/m2
18:10 66.7 °F 61.0 °F 29.88 in NNW 2.0 mph 3.0 mph 82% 0.00 in 79 W/m2
18:16 66.6 °F 61.3 °F 29.88 in NE 2.0 mph 4.0 mph 83% 0.00 in 104 W/m2
18:22 66.5 °F 61.2 °F 29.88 in NNW 2.0 mph 3.0 mph 83% 0.00 in 77 W/m2
18:28 66.4 °F 60.7 °F 29.88 in NNW 1.0 mph 3.0 mph 82% 0.00 in 76 W/m2
18:34 66.4 °F 61.1 °F 29.88 in NNW 2.0 mph 2.0 mph 83% 0.00 in 70 W/m2
18:40 66.3 °F 61.0 °F 29.88 in NNW 1.0 mph 1.0 mph 83% 0.00 in 58 W/m2
18:46 66.3 °F 61.0 °F 29.88 in NNW 1.0 mph 1.0 mph 83% 0.00 in 33 W/m2
18:52 66.1 °F 61.1 °F 29.88 in NNW 1.0 mph 1.0 mph 84% 0.00 in 40 W/m2
18:58 66.0 °F 61.0 °F 29.88 in NNW 1.0 mph 2.0 mph 84% 0.00 in 28 W/m2
19:04 65.9 °F 61.3 °F 29.89 in Calm   1.0 mph 85% 0.00 in 25 W/m2
19:10 65.8 °F 61.2 °F 29.89 in Calm     85% 0.00 in 19 W/m2
19:16 65.8 °F 61.2 °F 29.89 in Calm     85% 0.00 in 25 W/m2
19:22 65.7 °F 61.1 °F 29.89 in Calm   1.0 mph 85% 0.00 in 19 W/m2
19:28 65.6 °F 61.0 °F 29.89 in Calm   1.0 mph 85% 0.00 in 14 W/m2
19:34 65.4 °F 60.8 °F 29.89 in NNW 1.0 mph 2.0 mph 85% 0.00 in 12 W/m2
19:40 65.2 °F 60.9 °F 29.90 in NW 2.0 mph 2.0 mph 86% 0.00 in 9 W/m2
19:46 65.1 °F 60.8 °F 29.90 in NNW 2.0 mph 7.0 mph 86% 0.00 in 5 W/m2
19:52 64.8 °F 60.5 °F 29.90 in North 2.0 mph 5.0 mph 86% 0.00 in 0 W/m2
20:04 64.0 °F 59.7 °F 29.91 in NW 3.0 mph 4.0 mph 86% 0.00 in 0 W/m2
20:10 63.8 °F 59.9 °F 29.91 in NNE 2.0 mph 3.0 mph 87% 0.00 in 0 W/m2
20:16 63.6 °F 59.7 °F 29.91 in NNE 1.0 mph 3.0 mph 87% 0.00 in 0 W/m2
20:22 63.4 °F 59.8 °F 29.91 in NNW 2.0 mph 5.0 mph 88% 0.00 in 0 W/m2
20:28 63.1 °F 59.5 °F 29.92 in NNW 3.0 mph 5.0 mph 88% 0.00 in 0 W/m2
20:36 62.7 °F 59.4 °F 29.91 in North 2.0 mph 2.0 mph 89% 0.00 in 0 W/m2
20:42 62.5 °F 59.5 °F 29.92 in NNW 2.0 mph 4.0 mph 90% 0.05 in 0 W/m2
20:48 62.3 °F 59.3 °F 29.92 in North 2.0 mph 2.0 mph 90% 0.05 in 0 W/m2
20:54 62.1 °F 59.1 °F 29.92 in NNE 2.0 mph 2.0 mph 90% 0.05 in 0 W/m2
21:00 62.0 °F 59.3 °F 29.92 in NNE 1.0 mph 2.0 mph 91% 0.05 in 0 W/m2
21:06 61.9 °F 59.2 °F 29.92 in North 1.0 mph 2.0 mph 91% 0.04 in 0 W/m2
21:12 61.7 °F 59.0 °F 29.92 in North 1.0 mph 2.0 mph 91% 0.00 in 0 W/m2
21:18 61.6 °F 58.9 °F 29.92 in North 1.0 mph 2.0 mph 91% 0.00 in 0 W/m2
21:24 61.5 °F 58.8 °F 29.92 in Calm     91% 0.00 in 0 W/m2
21:30 61.5 °F 59.2 °F 29.92 in Calm     92% 0.00 in 0 W/m2
21:36 61.5 °F 59.2 °F 29.92 in Calm     92% 0.00 in 0 W/m2
21:42 61.4 °F 59.1 °F 29.92 in Calm     92% 0.00 in 0 W/m2
21:48 61.4 °F 59.1 °F 29.92 in Calm     92% 0.00 in 0 W/m2
21:54 61.4 °F 59.1 °F 29.92 in Calm     92% 0.00 in 0 W/m2
22:00 61.4 °F 59.1 °F 29.92 in Calm     92% 0.00 in 0 W/m2
22:06 61.4 °F 59.1 °F 29.92 in Calm     92% 0.00 in 0 W/m2
22:12 61.5 °F 59.2 °F 29.92 in Calm     92% 0.00 in 0 W/m2
22:18 61.4 °F 59.1 °F 29.92 in Calm     92% 0.00 in 0 W/m2
22:24 61.5 °F 59.5 °F 29.92 in Calm   1.0 mph 93% 0.00 in 0 W/m2
22:30 61.5 °F 59.5 °F 29.92 in Calm     93% 0.00 in 0 W/m2
22:36 61.4 °F 59.4 °F 29.92 in Calm   1.0 mph 93% 0.00 in 0 W/m2
22:42 61.4 °F 59.4 °F 29.91 in Calm     93% 0.00 in 0 W/m2
22:48 61.3 °F 59.3 °F 29.91 in Calm     93% 0.00 in 0 W/m2
22:54 61.3 °F 59.3 °F 29.91 in Calm     93% 0.00 in 0 W/m2
23:00 61.3 °F 59.3 °F 29.91 in Calm     93% 0.00 in 0 W/m2
23:06 61.3 °F 59.3 °F 29.91 in Calm     93% 0.00 in 0 W/m2
23:22 61.2 °F 59.2 °F 29.90 in Calm     93% 0.00 in 0 W/m2
23:28 61.2 °F 59.2 °F 29.90 in Calm     93% 0.00 in 0 W/m2
23:34 61.3 °F 59.3 °F 29.90 in Calm     93% 0.00 in 0 W/m2
23:40 61.3 °F 59.3 °F 29.90 in Calm     93% 0.00 in 0 W/m2
23:46 61.3 °F 59.3 °F 29.90 in Calm     93% 0.00 in 0 W/m2
23:52 61.2 °F 59.2 °F 29.90 in Calm     93% 0.00 in 0 W/m2
23:58 61.1 °F 59.1 °F 29.90 in Calm     93% 0.00 in 0 W/m2
Country Meadow, Clay, NY, USA
Compliments of Weather Underground - 2 mb